Terminal Aerodrome Forecast
Issued by NWS

Home | Current Version | Previous Version | Text Only | Print | Product List | Glossary On
Versions: 1 2 3 4 5 6 7 8 9 10 11 12 13 14 15 16 17 18 19 20 21 22 23 24 25 26 27 28 29
000
FTUS43 KDMX 030803 AAA
TAFFOD
TAF AMD
KFOD 030803Z 0308/0406 14010KT P6SM SCT015 BKN024 OVC030
     FM031200 15011KT 3SM -SNPL BKN015 OVC040
     FM031400 25010KT 5SM -SN BR OVC010
     FM031600 29013KT 5SM BR OVC015
     FM032000 33016G24KT P6SM OVC025
     FM040000 33010KT P6SM SCT025 BKN080=

USA.gov is the U.S. government's official web portal to all federal, state and local government web resources and services.